sensor_id;sensor_type;location;lat;lon;timestamp;P1;durP1;ratioP1;P2;durP2;ratioP2
23163;SDS011;31429;42.674;23.350;2022-11-20T00:00:35;10.00;;;7.83;;
23163;SDS011;31429;42.674;23.350;2022-11-20T00:01:36;12.33;;;7.97;;
23163;SDS011;31429;42.674;23.350;2022-11-20T00:02:37;9.87;;;7.73;;
23163;SDS011;31429;42.674;23.350;2022-11-20T00:03:37;14.87;;;10.27;;
23163;SDS011;31429;42.674;23.350;2022-11-20T00:04:38;13.43;;;9.50;;
23163;SDS011;31429;42.674;23.350;2022-11-20T00:05:40;9.20;;;7.57;;
23163;SDS011;31429;42.674;23.350;2022-11-20T00:06:41;9.27;;;6.13;;
23163;SDS011;31429;42.674;23.350;2022-11-20T00:07:42;11.50;;;9.37;;
23163;SDS011;31429;42.674;23.350;2022-11-20T00:08:42;11.07;;;7.87;;
23163;SDS011;31429;42.674;23.350;2022-11-20T00:09:44;9.67;;;7.73;;
23163;SDS011;31429;42.674;23.350;2022-11-20T00:10:44;13.30;;;8.60;;
23163;SDS011;31429;42.674;23.350;2022-11-20T00:11:45;14.97;;;10.20;;
23163;SDS011;31429;42.674;23.350;2022-11-20T00:12:46;8.50;;;7.47;;
23163;SDS011;31429;42.674;23.350;2022-11-20T00:13:47;11.30;;;9.30;;
23163;SDS011;31429;42.674;23.350;2022-11-20T00:14:49;14.60;;;10.77;;
23163;SDS011;31429;42.674;23.350;2022-11-20T00:15:56;10.83;;;8.33;;
23163;SDS011;31429;42.674;23.350;2022-11-20T00:16:57;11.97;;;9.43;;
23163;SDS011;31429;42.674;23.350;2022-11-20T00:17:58;13.30;;;11.00;;
23163;SDS011;31429;42.674;23.350;2022-11-20T00:18:58;14.93;;;11.57;;
23163;SDS011;31429;42.674;23.350;2022-11-20T00:19:59;13.40;;;10.17;;
23163;SDS011;31429;42.674;23.350;2022-11-20T00:21:02;13.67;;;8.47;;
23163;SDS011;31429;42.674;23.350;2022-11-20T00:22:03;12.30;;;8.83;;
23163;SDS011;31429;42.674;23.350;2022-11-20T00:23:03;11.67;;;10.27;;
23163;SDS011;31429;42.674;23.350;2022-11-20T00:24:04;17.10;;;13.37;;
23163;SDS011;31429;42.674;23.350;2022-11-20T00:25:06;13.17;;;10.90;;
23163;SDS011;31429;42.674;23.350;2022-11-20T00:26:07;13.13;;;10.30;;
23163;SDS011;31429;42.674;23.350;2022-11-20T00:27:09;9.13;;;7.23;;
23163;SDS011;31429;42.674;23.350;2022-11-20T00:28:09;11.47;;;9.67;;
23163;SDS011;31429;42.674;23.350;2022-11-20T00:29:10;11.23;;;9.20;;
23163;SDS011;31429;42.674;23.350;2022-11-20T00:30:11;14.80;;;8.60;;
23163;SDS011;31429;42.674;23.350;2022-11-20T00:31:12;10.07;;;7.83;;
23163;SDS011;31429;42.674;23.350;2022-11-20T00:32:14;8.47;;;7.10;;
23163;SDS011;31429;42.674;23.350;2022-11-20T00:33:15;10.17;;;8.13;;
23163;SDS011;31429;42.674;23.350;2022-11-20T00:34:15;10.70;;;8.10;;
23163;SDS011;31429;42.674;23.350;2022-11-20T00:35:16;11.27;;;8.40;;
23163;SDS011;31429;42.674;23.350;2022-11-20T00:36:19;12.40;;;9.30;;
23163;SDS011;31429;42.674;23.350;2022-11-20T00:37:21;17.37;;;13.60;;
23163;SDS011;31429;42.674;23.350;2022-11-20T00:38:21;15.27;;;11.93;;
23163;SDS011;31429;42.674;23.350;2022-11-20T00:39:22;17.33;;;13.07;;
23163;SDS011;31429;42.674;23.350;2022-11-20T00:40:22;13.17;;;10.50;;
23163;SDS011;31429;42.674;23.350;2022-11-20T00:41:23;11.87;;;8.80;;
23163;SDS011;31429;42.674;23.350;2022-11-20T00:42:25;9.53;;;6.73;;
23163;SDS011;31429;42.674;23.350;2022-11-20T00:43:25;9.97;;;7.07;;
23163;SDS011;31429;42.674;23.350;2022-11-20T00:44:26;12.50;;;7.57;;
23163;SDS011;31429;42.674;23.350;2022-11-20T00:45:27;13.87;;;8.47;;
23163;SDS011;31429;42.674;23.350;2022-11-20T00:46:27;8.57;;;6.10;;
23163;SDS011;31429;42.674;23.350;2022-11-20T00:47:28;7.63;;;6.30;;
23163;SDS011;31429;42.674;23.350;2022-11-20T00:48:29;9.57;;;6.57;;
23163;SDS011;31429;42.674;23.350;2022-11-20T00:49:30;9.97;;;6.80;;
23163;SDS011;31429;42.674;23.350;2022-11-20T00:50:31;14.07;;;10.70;;
23163;SDS011;31429;42.674;23.350;2022-11-20T00:51:32;8.90;;;6.67;;
23163;SDS011;31429;42.674;23.350;2022-11-20T00:52:33;8.17;;;6.40;;
23163;SDS011;31429;42.674;23.350;2022-11-20T00:53:34;6.57;;;5.10;;
23163;SDS011;31429;42.674;23.350;2022-11-20T00:54:34;12.90;;;5.60;;
23163;SDS011;31429;42.674;23.350;2022-11-20T00:55:35;8.07;;;5.27;;
23163;SDS011;31429;42.674;23.350;2022-11-20T00:56:36;7.40;;;5.30;;
23163;SDS011;31429;42.674;23.350;2022-11-20T00:57:36;7.20;;;5.57;;
23163;SDS011;31429;42.674;23.350;2022-11-20T00:58:37;7.10;;;3.70;;
23163;SDS011;31429;42.674;23.350;2022-11-20T00:59:39;3.87;;;3.43;;
23163;SDS011;31429;42.674;23.350;2022-11-20T01:00:40;6.47;;;3.20;;
23163;SDS011;31429;42.674;23.350;2022-11-20T01:01:41;4.93;;;3.87;;
23163;SDS011;31429;42.674;23.350;2022-11-20T01:02:41;5.57;;;3.10;;
23163;SDS011;31429;42.674;23.350;2022-11-20T01:03:42;5.77;;;4.03;;
23163;SDS011;31429;42.674;23.350;2022-11-20T01:04:44;5.07;;;3.67;;
23163;SDS011;31429;42.674;23.350;2022-11-20T01:05:45;6.77;;;4.30;;
23163;SDS011;31429;42.674;23.350;2022-11-20T01:06:47;4.67;;;2.27;;
23163;SDS011;31429;42.674;23.350;2022-11-20T01:07:48;3.63;;;2.60;;
23163;SDS011;31429;42.674;23.350;2022-11-20T01:08:49;3.87;;;2.73;;
23163;SDS011;31429;42.674;23.350;2022-11-20T01:09:53;3.50;;;2.53;;
23163;SDS011;31429;42.674;23.350;2022-11-20T01:10:58;3.60;;;2.50;;
23163;SDS011;31429;42.674;23.350;2022-11-20T01:11:59;6.97;;;2.83;;
23163;SDS011;31429;42.674;23.350;2022-11-20T01:13:00;4.20;;;3.13;;
23163;SDS011;31429;42.674;23.350;2022-11-20T01:14:19;4.40;;;1.83;;
23163;SDS011;31429;42.674;23.350;2022-11-20T01:15:20;2.97;;;2.20;;
23163;SDS011;31429;42.674;23.350;2022-11-20T01:16:21;3.83;;;2.20;;
23163;SDS011;31429;42.674;23.350;2022-11-20T01:17:23;5.47;;;2.43;;
23163;SDS011;31429;42.674;23.350;2022-11-20T01:18:24;3.97;;;2.27;;
23163;SDS011;31429;42.674;23.350;2022-11-20T01:19:24;5.37;;;2.57;;
23163;SDS011;31429;42.674;23.350;2022-11-20T01:20:25;3.13;;;2.40;;
23163;SDS011;31429;42.674;23.350;2022-11-20T01:21:26;3.37;;;2.20;;
23163;SDS011;31429;42.674;23.350;2022-11-20T01:22:30;4.90;;;2.20;;
23163;SDS011;31429;42.674;23.350;2022-11-20T01:23:31;4.13;;;2.20;;
23163;SDS011;31429;42.674;23.350;2022-11-20T01:24:33;3.00;;;1.83;;
23163;SDS011;31429;42.674;23.350;2022-11-20T01:25:33;7.97;;;1.90;;
23163;SDS011;31429;42.674;23.350;2022-11-20T01:26:35;4.53;;;1.93;;
23163;SDS011;31429;42.674;23.350;2022-11-20T01:27:37;3.17;;;1.80;;
23163;SDS011;31429;42.674;23.350;2022-11-20T01:28:39;6.17;;;1.60;;
23163;SDS011;31429;42.674;23.350;2022-11-20T01:29:40;1.90;;;1.30;;
23163;SDS011;31429;42.674;23.350;2022-11-20T01:30:41;5.87;;;1.63;;
23163;SDS011;31429;42.674;23.350;2022-11-20T01:31:41;4.17;;;1.97;;
23163;SDS011;31429;42.674;23.350;2022-11-20T01:32:42;4.20;;;2.27;;
23163;SDS011;31429;42.674;23.350;2022-11-20T01:33:44;3.33;;;2.10;;
23163;SDS011;31429;42.674;23.350;2022-11-20T01:34:45;3.90;;;2.13;;
23163;SDS011;31429;42.674;23.350;2022-11-20T01:35:46;2.83;;;1.50;;
23163;SDS011;31429;42.674;23.350;2022-11-20T01:36:46;3.13;;;2.27;;
23163;SDS011;31429;42.674;23.350;2022-11-20T01:37:48;3.07;;;1.83;;
23163;SDS011;31429;42.674;23.350;2022-11-20T01:38:50;5.17;;;1.97;;
23163;SDS011;31429;42.674;23.350;2022-11-20T01:39:52;4.83;;;2.20;;
23163;SDS011;31429;42.674;23.350;2022-11-20T01:40:53;3.47;;;2.07;;
23163;SDS011;31429;42.674;23.350;2022-11-20T01:41:55;4.17;;;2.30;;
23163;SDS011;31429;42.674;23.350;2022-11-20T01:43:16;2.63;;;2.40;;
23163;SDS011;31429;42.674;23.350;2022-11-20T01:44:22;4.90;;;2.50;;
23163;SDS011;31429;42.674;23.350;2022-11-20T01:47:04;4.27;;;2.80;;
23163;SDS011;31429;42.674;23.350;2022-11-20T01:48:06;5.53;;;2.90;;
23163;SDS011;31429;42.674;23.350;2022-11-20T01:49:08;4.87;;;3.00;;
23163;SDS011;31429;42.674;23.350;2022-11-20T01:50:13;8.60;;;3.77;;
23163;SDS011;31429;42.674;23.350;2022-11-20T01:51:19;5.23;;;3.57;;
23163;SDS011;31429;42.674;23.350;2022-11-20T01:52:24;5.90;;;3.23;;
23163;SDS011;31429;42.674;23.350;2022-11-20T01:53:31;5.47;;;3.30;;
23163;SDS011;31429;42.674;23.350;2022-11-20T01:54:35;5.53;;;3.30;;
23163;SDS011;31429;42.674;23.350;2022-11-20T01:55:39;4.77;;;2.87;;
23163;SDS011;31429;42.674;23.350;2022-11-20T01:56:44;6.97;;;3.07;;
23163;SDS011;31429;42.674;23.350;2022-11-20T01:57:47;4.33;;;3.00;;
23163;SDS011;31429;42.674;23.350;2022-11-20T01:58:49;4.23;;;2.97;;
23163;SDS011;31429;42.674;23.350;2022-11-20T01:59:53;4.20;;;2.03;;
23163;SDS011;31429;42.674;23.350;2022-11-20T02:00:59;6.37;;;2.00;;
23163;SDS011;31429;42.674;23.350;2022-11-20T02:02:00;3.67;;;2.17;;
23163;SDS011;31429;42.674;23.350;2022-11-20T02:03:01;1.97;;;1.53;;
23163;SDS011;31429;42.674;23.350;2022-11-20T02:04:05;8.20;;;1.70;;
23163;SDS011;31429;42.674;23.350;2022-11-20T02:05:11;8.07;;;2.43;;
23163;SDS011;31429;42.674;23.350;2022-11-20T02:06:20;3.47;;;1.90;;
23163;SDS011;31429;42.674;23.350;2022-11-20T02:07:24;3.37;;;1.97;;
23163;SDS011;31429;42.674;23.350;2022-11-20T02:08:25;3.10;;;2.13;;
23163;SDS011;31429;42.674;23.350;2022-11-20T02:09:27;6.77;;;2.30;;
23163;SDS011;31429;42.674;23.350;2022-11-20T02:10:28;4.63;;;2.90;;
23163;SDS011;31429;42.674;23.350;2022-11-20T02:11:30;5.77;;;2.40;;
23163;SDS011;31429;42.674;23.350;2022-11-20T02:12:31;5.70;;;2.33;;
23163;SDS011;31429;42.674;23.350;2022-11-20T02:13:50;4.60;;;2.17;;
23163;SDS011;31429;42.674;23.350;2022-11-20T02:14:51;7.43;;;3.30;;
23163;SDS011;31429;42.674;23.350;2022-11-20T02:15:52;4.60;;;3.00;;
23163;SDS011;31429;42.674;23.350;2022-11-20T02:16:53;10.13;;;2.80;;
23163;SDS011;31429;42.674;23.350;2022-11-20T02:17:55;6.67;;;3.10;;
23163;SDS011;31429;42.674;23.350;2022-11-20T02:18:56;3.47;;;2.43;;
23163;SDS011;31429;42.674;23.350;2022-11-20T02:19:59;7.17;;;2.90;;
23163;SDS011;31429;42.674;23.350;2022-11-20T02:21:01;7.00;;;2.77;;
23163;SDS011;31429;42.674;23.350;2022-11-20T02:22:07;6.17;;;1.97;;
23163;SDS011;31429;42.674;23.350;2022-11-20T02:23:16;2.90;;;1.57;;
23163;SDS011;31429;42.674;23.350;2022-11-20T02:24:24;2.37;;;1.50;;
23163;SDS011;31429;42.674;23.350;2022-11-20T02:25:25;2.80;;;1.60;;
23163;SDS011;31429;42.674;23.350;2022-11-20T02:26:30;9.53;;;2.43;;
23163;SDS011;31429;42.674;23.350;2022-11-20T02:27:33;2.60;;;2.40;;
23163;SDS011;31429;42.674;23.350;2022-11-20T02:28:34;4.47;;;2.30;;
23163;SDS011;31429;42.674;23.350;2022-11-20T02:29:37;6.23;;;1.90;;
23163;SDS011;31429;42.674;23.350;2022-11-20T02:30:41;3.30;;;2.50;;
23163;SDS011;31429;42.674;23.350;2022-11-20T02:31:42;3.93;;;2.53;;
23163;SDS011;31429;42.674;23.350;2022-11-20T02:32:44;5.73;;;2.30;;
23163;SDS011;31429;42.674;23.350;2022-11-20T02:33:44;3.67;;;2.37;;
23163;SDS011;31429;42.674;23.350;2022-11-20T02:34:45;5.27;;;2.47;;
23163;SDS011;31429;42.674;23.350;2022-11-20T02:35:46;5.53;;;2.50;;
23163;SDS011;31429;42.674;23.350;2022-11-20T02:36:47;3.23;;;1.77;;
23163;SDS011;31429;42.674;23.350;2022-11-20T02:37:52;5.80;;;2.20;;
23163;SDS011;31429;42.674;23.350;2022-11-20T02:38:54;4.57;;;2.50;;
23163;SDS011;31429;42.674;23.350;2022-11-20T02:39:57;4.07;;;2.20;;
23163;SDS011;31429;42.674;23.350;2022-11-20T02:40:57;2.47;;;1.30;;
23163;SDS011;31429;42.674;23.350;2022-11-20T02:42:00;2.47;;;1.10;;
23163;SDS011;31429;42.674;23.350;2022-11-20T02:43:01;3.43;;;1.07;;
23163;SDS011;31429;42.674;23.350;2022-11-20T02:44:02;3.27;;;1.27;;
23163;SDS011;31429;42.674;23.350;2022-11-20T02:45:03;1.40;;;1.20;;
23163;SDS011;31429;42.674;23.350;2022-11-20T02:46:06;2.40;;;1.23;;
23163;SDS011;31429;42.674;23.350;2022-11-20T02:47:07;2.93;;;1.40;;
23163;SDS011;31429;42.674;23.350;2022-11-20T02:48:08;3.00;;;1.37;;
23163;SDS011;31429;42.674;23.350;2022-11-20T02:49:09;4.00;;;1.00;;
23163;SDS011;31429;42.674;23.350;2022-11-20T02:50:09;2.47;;;1.00;;
23163;SDS011;31429;42.674;23.350;2022-11-20T02:51:10;3.13;;;1.00;;
23163;SDS011;31429;42.674;23.350;2022-11-20T02:52:11;2.03;;;0.90;;
23163;SDS011;31429;42.674;23.350;2022-11-20T02:53:11;1.73;;;1.27;;
23163;SDS011;31429;42.674;23.350;2022-11-20T02:54:12;1.83;;;1.03;;
23163;SDS011;31429;42.674;23.350;2022-11-20T02:55:14;3.43;;;1.20;;
23163;SDS011;31429;42.674;23.350;2022-11-20T02:56:15;4.40;;;1.13;;
23163;SDS011;31429;42.674;23.350;2022-11-20T02:57:16;1.73;;;1.10;;
23163;SDS011;31429;42.674;23.350;2022-11-20T02:58:16;1.57;;;1.03;;
23163;SDS011;31429;42.674;23.350;2022-11-20T02:59:17;2.33;;;1.13;;
23163;SDS011;31429;42.674;23.350;2022-11-20T03:00:18;2.33;;;1.00;;
23163;SDS011;31429;42.674;23.350;2022-11-20T03:01:19;2.27;;;0.97;;
23163;SDS011;31429;42.674;23.350;2022-11-20T03:02:19;3.97;;;1.23;;
23163;SDS011;31429;42.674;23.350;2022-11-20T03:03:20;3.10;;;1.37;;
23163;SDS011;31429;42.674;23.350;2022-11-20T03:04:21;3.77;;;1.13;;
23163;SDS011;31429;42.674;23.350;2022-11-20T03:05:21;3.00;;;1.40;;
23163;SDS011;31429;42.674;23.350;2022-11-20T03:06:22;5.07;;;1.40;;
23163;SDS011;31429;42.674;23.350;2022-11-20T03:07:23;5.03;;;1.50;;
23163;SDS011;31429;42.674;23.350;2022-11-20T03:08:24;4.10;;;1.10;;
23163;SDS011;31429;42.674;23.350;2022-11-20T03:09:24;1.80;;;1.20;;
23163;SDS011;31429;42.674;23.350;2022-11-20T03:10:26;2.93;;;1.10;;
23163;SDS011;31429;42.674;23.350;2022-11-20T03:11:27;6.13;;;1.60;;
23163;SDS011;31429;42.674;23.350;2022-11-20T03:12:28;3.37;;;1.37;;
23163;SDS011;31429;42.674;23.350;2022-11-20T03:13:29;3.83;;;1.60;;
23163;SDS011;31429;42.674;23.350;2022-11-20T03:14:30;5.90;;;1.53;;
23163;SDS011;31429;42.674;23.350;2022-11-20T03:15:30;2.70;;;1.23;;
23163;SDS011;31429;42.674;23.350;2022-11-20T03:16:31;2.73;;;1.40;;
23163;SDS011;31429;42.674;23.350;2022-11-20T03:17:32;4.20;;;1.20;;
23163;SDS011;31429;42.674;23.350;2022-11-20T03:18:33;4.10;;;1.23;;
23163;SDS011;31429;42.674;23.350;2022-11-20T03:19:33;2.60;;;1.10;;
23163;SDS011;31429;42.674;23.350;2022-11-20T03:20:34;3.37;;;1.07;;
23163;SDS011;31429;42.674;23.350;2022-11-20T03:21:35;1.57;;;1.20;;
23163;SDS011;31429;42.674;23.350;2022-11-20T03:22:36;1.97;;;1.40;;
23163;SDS011;31429;42.674;23.350;2022-11-20T03:23:37;1.67;;;1.07;;
23163;SDS011;31429;42.674;23.350;2022-11-20T03:24:38;3.10;;;1.53;;
23163;SDS011;31429;42.674;23.350;2022-11-20T03:25:40;2.83;;;1.50;;
23163;SDS011;31429;42.674;23.350;2022-11-20T03:26:41;2.13;;;1.03;;
23163;SDS011;31429;42.674;23.350;2022-11-20T03:27:41;1.47;;;1.00;;
23163;SDS011;31429;42.674;23.350;2022-11-20T03:28:45;4.77;;;1.30;;
23163;SDS011;31429;42.674;23.350;2022-11-20T03:29:47;2.47;;;1.30;;
23163;SDS011;31429;42.674;23.350;2022-11-20T03:30:47;2.63;;;1.40;;
23163;SDS011;31429;42.674;23.350;2022-11-20T03:31:48;2.70;;;1.10;;
23163;SDS011;31429;42.674;23.350;2022-11-20T03:32:49;1.47;;;1.00;;
23163;SDS011;31429;42.674;23.350;2022-11-20T03:33:53;3.13;;;1.50;;
23163;SDS011;31429;42.674;23.350;2022-11-20T03:34:54;1.53;;;0.80;;
23163;SDS011;31429;42.674;23.350;2022-11-20T03:35:54;4.70;;;1.70;;
23163;SDS011;31429;42.674;23.350;2022-11-20T03:37:01;3.90;;;1.40;;
23163;SDS011;31429;42.674;23.350;2022-11-20T03:38:02;3.90;;;1.63;;
23163;SDS011;31429;42.674;23.350;2022-11-20T03:39:02;2.50;;;1.17;;
23163;SDS011;31429;42.674;23.350;2022-11-20T03:40:03;3.47;;;1.13;;
23163;SDS011;31429;42.674;23.350;2022-11-20T03:41:09;2.90;;;1.07;;
23163;SDS011;31429;42.674;23.350;2022-11-20T03:42:10;3.07;;;1.10;;
23163;SDS011;31429;42.674;23.350;2022-11-20T03:43:31;2.47;;;1.30;;
23163;SDS011;31429;42.674;23.350;2022-11-20T03:44:32;2.17;;;1.20;;
23163;SDS011;31429;42.674;23.350;2022-11-20T03:45:33;2.43;;;1.10;;
23163;SDS011;31429;42.674;23.350;2022-11-20T03:46:34;2.53;;;1.10;;
23163;SDS011;31429;42.674;23.350;2022-11-20T03:47:34;1.77;;;1.00;;
23163;SDS011;31429;42.674;23.350;2022-11-20T03:48:35;4.50;;;1.00;;
23163;SDS011;31429;42.674;23.350;2022-11-20T03:49:36;2.53;;;1.13;;
23163;SDS011;31429;42.674;23.350;2022-11-20T03:50:37;3.17;;;1.00;;
23163;SDS011;31429;42.674;23.350;2022-11-20T03:51:37;1.97;;;0.93;;
23163;SDS011;31429;42.674;23.350;2022-11-20T03:52:38;1.73;;;0.90;;
23163;SDS011;31429;42.674;23.350;2022-11-20T03:53:39;3.17;;;1.17;;
23163;SDS011;31429;42.674;23.350;2022-11-20T03:54:40;3.57;;;1.20;;
23163;SDS011;31429;42.674;23.350;2022-11-20T03:55:40;3.30;;;1.70;;
23163;SDS011;31429;42.674;23.350;2022-11-20T03:56:42;3.47;;;1.10;;
23163;SDS011;31429;42.674;23.350;2022-11-20T03:57:43;2.77;;;1.20;;
23163;SDS011;31429;42.674;23.350;2022-11-20T03:58:44;4.53;;;1.30;;
23163;SDS011;31429;42.674;23.350;2022-11-20T03:59:44;3.83;;;1.00;;
23163;SDS011;31429;42.674;23.350;2022-11-20T04:00:45;2.73;;;1.27;;
23163;SDS011;31429;42.674;23.350;2022-11-20T04:01:46;3.10;;;1.37;;
23163;SDS011;31429;42.674;23.350;2022-11-20T04:02:46;1.57;;;1.03;;
23163;SDS011;31429;42.674;23.350;2022-11-20T04:03:47;4.60;;;1.20;;
23163;SDS011;31429;42.674;23.350;2022-11-20T04:04:48;3.33;;;1.23;;
23163;SDS011;31429;42.674;23.350;2022-11-20T04:05:48;2.83;;;1.00;;
23163;SDS011;31429;42.674;23.350;2022-11-20T04:06:49;4.00;;;1.33;;
23163;SDS011;31429;42.674;23.350;2022-11-20T04:07:50;3.73;;;1.03;;
23163;SDS011;31429;42.674;23.350;2022-11-20T04:08:50;3.03;;;1.40;;
23163;SDS011;31429;42.674;23.350;2022-11-20T04:09:51;2.30;;;1.17;;
23163;SDS011;31429;42.674;23.350;2022-11-20T04:10:52;2.00;;;0.97;;
23163;SDS011;31429;42.674;23.350;2022-11-20T04:11:54;1.93;;;1.27;;
23163;SDS011;31429;42.674;23.350;2022-11-20T04:12:54;4.47;;;1.23;;
23163;SDS011;31429;42.674;23.350;2022-11-20T04:13:56;4.30;;;1.33;;
23163;SDS011;31429;42.674;23.350;2022-11-20T04:14:58;1.50;;;1.20;;
23163;SDS011;31429;42.674;23.350;2022-11-20T04:15:58;5.43;;;1.47;;
23163;SDS011;31429;42.674;23.350;2022-11-20T04:16:59;5.33;;;1.20;;
23163;SDS011;31429;42.674;23.350;2022-11-20T04:17:59;2.70;;;1.30;;
23163;SDS011;31429;42.674;23.350;2022-11-20T04:19:01;3.60;;;1.40;;
23163;SDS011;31429;42.674;23.350;2022-11-20T04:20:04;1.57;;;0.80;;
23163;SDS011;31429;42.674;23.350;2022-11-20T04:21:05;4.77;;;1.20;;
23163;SDS011;31429;42.674;23.350;2022-11-20T04:22:06;1.03;;;0.93;;
23163;SDS011;31429;42.674;23.350;2022-11-20T04:23:07;3.37;;;1.20;;
23163;SDS011;31429;42.674;23.350;2022-11-20T04:24:08;2.13;;;1.27;;
23163;SDS011;31429;42.674;23.350;2022-11-20T04:25:10;3.27;;;1.27;;
23163;SDS011;31429;42.674;23.350;2022-11-20T04:26:11;2.93;;;1.00;;
23163;SDS011;31429;42.674;23.350;2022-11-20T04:27:14;1.97;;;0.90;;
23163;SDS011;31429;42.674;23.350;2022-11-20T04:28:14;3.43;;;1.20;;
23163;SDS011;31429;42.674;23.350;2022-11-20T04:29:15;3.67;;;1.07;;
23163;SDS011;31429;42.674;23.350;2022-11-20T04:30:16;3.30;;;1.17;;
23163;SDS011;31429;42.674;23.350;2022-11-20T04:31:17;3.33;;;1.30;;
23163;SDS011;31429;42.674;23.350;2022-11-20T04:32:19;3.93;;;1.13;;
23163;SDS011;31429;42.674;23.350;2022-11-20T04:33:20;1.83;;;0.83;;
23163;SDS011;31429;42.674;23.350;2022-11-20T04:34:21;1.93;;;1.50;;
23163;SDS011;31429;42.674;23.350;2022-11-20T04:35:21;1.43;;;0.80;;
23163;SDS011;31429;42.674;23.350;2022-11-20T04:36:23;3.67;;;1.00;;
23163;SDS011;31429;42.674;23.350;2022-11-20T04:37:24;2.30;;;0.80;;
23163;SDS011;31429;42.674;23.350;2022-11-20T04:38:25;3.90;;;1.00;;
23163;SDS011;31429;42.674;23.350;2022-11-20T04:39:25;3.10;;;1.17;;
23163;SDS011;31429;42.674;23.350;2022-11-20T04:40:27;4.50;;;1.20;;
23163;SDS011;31429;42.674;23.350;2022-11-20T04:41:28;4.77;;;1.47;;
23163;SDS011;31429;42.674;23.350;2022-11-20T04:42:32;2.07;;;0.80;;
23163;SDS011;31429;42.674;23.350;2022-11-20T04:43:32;3.67;;;1.53;;
23163;SDS011;31429;42.674;23.350;2022-11-20T04:44:33;2.80;;;1.20;;
23163;SDS011;31429;42.674;23.350;2022-11-20T04:45:34;3.33;;;1.30;;
23163;SDS011;31429;42.674;23.350;2022-11-20T04:46:35;4.97;;;1.40;;
23163;SDS011;31429;42.674;23.350;2022-11-20T04:47:37;2.23;;;1.00;;
23163;SDS011;31429;42.674;23.350;2022-11-20T04:48:38;2.70;;;1.20;;
23163;SDS011;31429;42.674;23.350;2022-11-20T04:49:39;1.57;;;1.00;;
23163;SDS011;31429;42.674;23.350;2022-11-20T04:50:40;2.33;;;0.90;;
23163;SDS011;31429;42.674;23.350;2022-11-20T04:51:41;3.17;;;1.53;;
23163;SDS011;31429;42.674;23.350;2022-11-20T04:52:41;4.93;;;1.30;;
23163;SDS011;31429;42.674;23.350;2022-11-20T04:53:42;3.77;;;1.30;;
23163;SDS011;31429;42.674;23.350;2022-11-20T04:54:42;2.70;;;0.90;;
23163;SDS011;31429;42.674;23.350;2022-11-20T04:55:43;3.03;;;1.30;;
23163;SDS011;31429;42.674;23.350;2022-11-20T04:56:44;3.17;;;1.00;;
23163;SDS011;31429;42.674;23.350;2022-11-20T04:57:46;1.97;;;1.13;;
23163;SDS011;31429;42.674;23.350;2022-11-20T04:58:50;1.87;;;1.10;;
23163;SDS011;31429;42.674;23.350;2022-11-20T04:59:51;5.23;;;1.40;;
23163;SDS011;31429;42.674;23.350;2022-11-20T05:00:52;3.27;;;1.20;;
23163;SDS011;31429;42.674;23.350;2022-11-20T05:01:52;1.70;;;1.20;;
23163;SDS011;31429;42.674;23.350;2022-11-20T05:02:53;3.00;;;1.20;;
23163;SDS011;31429;42.674;23.350;2022-11-20T05:03:53;3.37;;;1.00;;
23163;SDS011;31429;42.674;23.350;2022-11-20T05:04:54;2.73;;;0.90;;
23163;SDS011;31429;42.674;23.350;2022-11-20T05:05:55;2.17;;;1.20;;
23163;SDS011;31429;42.674;23.350;2022-11-20T05:06:55;1.80;;;0.90;;
23163;SDS011;31429;42.674;23.350;2022-11-20T05:07:56;5.07;;;1.23;;
23163;SDS011;31429;42.674;23.350;2022-11-20T05:08:57;2.43;;;1.30;;
23163;SDS011;31429;42.674;23.350;2022-11-20T05:09:58;2.90;;;1.20;;
23163;SDS011;31429;42.674;23.350;2022-11-20T05:10:59;3.90;;;1.17;;
23163;SDS011;31429;42.674;23.350;2022-11-20T05:12:01;4.30;;;1.30;;
23163;SDS011;31429;42.674;23.350;2022-11-20T05:13:03;2.50;;;0.80;;
23163;SDS011;31429;42.674;23.350;2022-11-20T05:14:04;4.40;;;0.80;;
23163;SDS011;31429;42.674;23.350;2022-11-20T05:15:04;2.33;;;0.93;;
23163;SDS011;31429;42.674;23.350;2022-11-20T05:16:06;2.57;;;1.10;;
23163;SDS011;31429;42.674;23.350;2022-11-20T05:17:09;2.60;;;1.03;;
23163;SDS011;31429;42.674;23.350;2022-11-20T05:18:11;0.97;;;0.80;;
23163;SDS011;31429;42.674;23.350;2022-11-20T05:19:11;1.27;;;1.00;;
23163;SDS011;31429;42.674;23.350;2022-11-20T05:20:12;2.20;;;1.00;;
23163;SDS011;31429;42.674;23.350;2022-11-20T05:21:13;1.37;;;0.87;;
23163;SDS011;31429;42.674;23.350;2022-11-20T05:22:14;1.70;;;0.90;;
23163;SDS011;31429;42.674;23.350;2022-11-20T05:23:14;3.13;;;1.10;;
23163;SDS011;31429;42.674;23.350;2022-11-20T05:24:15;1.43;;;1.00;;
23163;SDS011;31429;42.674;23.350;2022-11-20T05:25:16;2.40;;;0.87;;
23163;SDS011;31429;42.674;23.350;2022-11-20T05:26:17;2.17;;;0.90;;
23163;SDS011;31429;42.674;23.350;2022-11-20T05:27:20;3.67;;;1.10;;
23163;SDS011;31429;42.674;23.350;2022-11-20T05:28:22;2.60;;;0.80;;
23163;SDS011;31429;42.674;23.350;2022-11-20T05:29:23;4.47;;;1.47;;
23163;SDS011;31429;42.674;23.350;2022-11-20T05:30:23;3.63;;;1.37;;
23163;SDS011;31429;42.674;23.350;2022-11-20T05:31:24;3.37;;;1.00;;
23163;SDS011;31429;42.674;23.350;2022-11-20T05:32:25;1.53;;;0.80;;
23163;SDS011;31429;42.674;23.350;2022-11-20T05:33:26;2.63;;;1.10;;
23163;SDS011;31429;42.674;23.350;2022-11-20T05:34:26;2.50;;;1.17;;
23163;SDS011;31429;42.674;23.350;2022-11-20T05:35:27;4.53;;;1.23;;
23163;SDS011;31429;42.674;23.350;2022-11-20T05:36:28;3.07;;;1.20;;
23163;SDS011;31429;42.674;23.350;2022-11-20T05:37:30;3.33;;;1.20;;
23163;SDS011;31429;42.674;23.350;2022-11-20T05:38:30;2.50;;;1.10;;
23163;SDS011;31429;42.674;23.350;2022-11-20T05:39:31;3.47;;;1.50;;
23163;SDS011;31429;42.674;23.350;2022-11-20T05:40:32;5.13;;;1.50;;
23163;SDS011;31429;42.674;23.350;2022-11-20T05:41:32;3.30;;;1.10;;
23163;SDS011;31429;42.674;23.350;2022-11-20T05:42:33;2.27;;;1.17;;
23163;SDS011;31429;42.674;23.350;2022-11-20T05:43:35;3.43;;;1.23;;
23163;SDS011;31429;42.674;23.350;2022-11-20T05:44:37;3.43;;;1.40;;
23163;SDS011;31429;42.674;23.350;2022-11-20T05:45:38;3.30;;;1.60;;
23163;SDS011;31429;42.674;23.350;2022-11-20T05:46:39;5.07;;;1.33;;
23163;SDS011;31429;42.674;23.350;2022-11-20T05:47:39;6.10;;;1.50;;
23163;SDS011;31429;42.674;23.350;2022-11-20T05:48:40;1.30;;;1.20;;
23163;SDS011;31429;42.674;23.350;2022-11-20T05:49:43;4.37;;;1.60;;
23163;SDS011;31429;42.674;23.350;2022-11-20T05:50:43;3.73;;;1.50;;
23163;SDS011;31429;42.674;23.350;2022-11-20T05:51:44;4.07;;;1.57;;
23163;SDS011;31429;42.674;23.350;2022-11-20T05:52:45;2.43;;;1.50;;
23163;SDS011;31429;42.674;23.350;2022-11-20T05:53:45;6.90;;;1.60;;
23163;SDS011;31429;42.674;23.350;2022-11-20T05:54:47;4.70;;;1.90;;
23163;SDS011;31429;42.674;23.350;2022-11-20T05:55:55;4.07;;;1.90;;
23163;SDS011;31429;42.674;23.350;2022-11-20T05:56:56;2.53;;;1.70;;
23163;SDS011;31429;42.674;23.350;2022-11-20T05:57:57;2.13;;;1.53;;
23163;SDS011;31429;42.674;23.350;2022-11-20T05:58:59;1.80;;;1.30;;
23163;SDS011;31429;42.674;23.350;2022-11-20T05:59:59;4.10;;;1.70;;
23163;SDS011;31429;42.674;23.350;2022-11-20T06:01:04;3.33;;;1.53;;
23163;SDS011;31429;42.674;23.350;2022-11-20T06:02:06;6.33;;;1.37;;
23163;SDS011;31429;42.674;23.350;2022-11-20T06:03:07;5.83;;;1.30;;
23163;SDS011;31429;42.674;23.350;2022-11-20T06:04:07;4.30;;;1.73;;
23163;SDS011;31429;42.674;23.350;2022-11-20T06:05:08;5.53;;;1.77;;
23163;SDS011;31429;42.674;23.350;2022-11-20T06:06:09;2.13;;;1.33;;
23163;SDS011;31429;42.674;23.350;2022-11-20T06:07:09;4.13;;;1.43;;